createdAt,value
2022-09-05T00:02:23.285Z,70.49
2022-09-05T00:05:25.150Z,69.87
2022-09-05T00:08:19.698Z,70.20
2022-09-05T00:11:41.346Z,69.57
2022-09-05T00:15:17.721Z,70.34
2022-09-05T00:20:06.406Z,70.83
2022-09-05T00:24:28.688Z,70.32
2022-09-05T00:25:00.750Z,70.97
2022-09-05T00:27:56.742Z,70.71
2022-09-05T00:31:08.881Z,70.14
2022-09-05T00:34:00.576Z,71.03
2022-09-05T00:36:47.654Z,69.98
2022-09-05T00:39:39.863Z,70.42
2022-09-05T00:42:24.118Z,70.70
2022-09-05T00:45:19.420Z,71.10
2022-09-05T00:48:15.700Z,69.87
2022-09-05T00:51:06.393Z,70.22
2022-09-05T00:54:01.893Z,69.93
2022-09-05T00:57:03.802Z,69.71
2022-09-05T01:00:17.286Z,69.69
2022-09-05T01:03:27.402Z,69.61
2022-09-05T01:06:34.878Z,69.88
2022-09-05T01:09:35.267Z,69.83
2022-09-05T01:12:42.110Z,69.47
2022-09-05T01:15:44.645Z,69.38
2022-09-05T01:18:42.619Z,68.71
2022-09-05T01:21:52.000Z,68.87
2022-09-05T01:25:09.957Z,68.83
2022-09-05T01:29:17.388Z,69.21
2022-09-05T01:31:14.177Z,68.81
2022-09-05T01:34:05.067Z,68.13
2022-09-05T01:36:59.964Z,68.49
2022-09-05T01:40:14.866Z,68.55
2022-09-05T01:43:18.859Z,68.34
2022-09-05T01:46:20.792Z,68.74
2022-09-05T01:49:19.290Z,68.29
2022-09-05T01:52:24.088Z,69.71
2022-09-05T01:55:21.039Z,69.78
2022-09-05T01:58:16.987Z,69.93
2022-09-05T02:01:31.603Z,69.18
2022-09-05T02:04:36.591Z,70.44
2022-09-05T02:07:33.304Z,70.34
2022-09-05T02:10:54.763Z,70.28
2022-09-05T02:13:53.595Z,70.42
2022-09-05T02:16:45.197Z,70.47
2022-09-05T02:19:32.645Z,70.52
2022-09-05T02:22:23.870Z,70.78
2022-09-05T02:26:00.670Z,70.99
2022-09-05T02:28:25.767Z,71.09
2022-09-05T02:31:19.520Z,71.31
2022-09-05T02:34:11.633Z,71.57
2022-09-05T02:37:08.334Z,71.39
2022-09-05T02:45:02.495Z,71.11
2022-09-05T02:45:18.589Z,71.07
2022-09-05T02:46:26.271Z,71.04
2022-09-05T02:51:01.245Z,71.52
2022-09-05T02:57:29.067Z,71.50
2022-09-05T02:57:42.488Z,71.57
2022-09-05T02:59:16.059Z,70.79
2022-09-05T03:02:26.187Z,70.96
2022-09-05T03:05:17.480Z,71.11
2022-09-05T03:08:22.629Z,70.84
2022-09-05T03:11:44.388Z,70.85
2022-09-05T03:15:22.249Z,71.10
2022-09-05T03:18:48.563Z,70.97
2022-09-05T03:22:22.607Z,71.30
2022-09-05T03:25:51.018Z,70.93
2022-09-05T03:29:16.589Z,70.80
2022-09-05T03:32:43.096Z,71.06
2022-09-05T03:36:00.083Z,71.31
2022-09-05T03:39:32.398Z,71.26
2022-09-05T03:42:32.496Z,71.38
2022-09-05T03:45:37.543Z,70.61
2022-09-05T03:48:51.215Z,70.59
2022-09-05T03:57:06.747Z,70.49
2022-09-05T03:57:17.820Z,70.75
2022-09-05T03:58:57.172Z,70.51
2022-09-05T04:07:08.727Z,70.31
2022-09-05T04:08:19.425Z,70.62
2022-09-05T04:08:32.081Z,70.56
2022-09-05T04:11:17.964Z,70.48
2022-09-05T04:14:07.258Z,70.78
2022-09-05T04:16:54.765Z,70.33
2022-09-05T04:19:49.952Z,70.46
2022-09-05T04:23:00.678Z,69.61
2022-09-05T04:26:01.444Z,69.43
2022-09-05T04:29:04.533Z,69.53
2022-09-05T04:32:15.393Z,69.08
2022-09-05T04:35:16.070Z,69.22
2022-09-05T04:38:10.008Z,68.48
2022-09-05T04:41:03.576Z,67.90
2022-09-05T04:43:50.751Z,67.62
2022-09-05T04:46:47.877Z,66.80
2022-09-05T04:49:38.532Z,66.05
2022-09-05T04:53:01.605Z,65.38
2022-09-05T04:55:51.008Z,64.64
2022-09-05T04:59:36.268Z,64.73
2022-09-05T05:06:02.872Z,64.36
2022-09-05T05:06:14.487Z,63.69
2022-09-05T05:08:13.864Z,63.12
2022-09-05T05:15:29.440Z,62.50
2022-09-05T05:17:54.427Z,61.43
2022-09-05T05:18:15.328Z,60.34
2022-09-05T05:20:42.881Z,59.85
2022-09-05T05:23:38.391Z,59.98
2022-09-05T05:26:25.527Z,58.62
2022-09-05T05:29:19.577Z,58.02
2022-09-05T05:32:05.960Z,57.30
2022-09-05T05:34:55.283Z,56.86
2022-09-05T05:37:44.762Z,56.29
2022-09-05T05:40:31.752Z,55.66
2022-09-05T05:43:30.138Z,55.13
2022-09-05T05:46:29.148Z,54.33
2022-09-05T05:49:28.982Z,53.30
2022-09-05T05:52:45.631Z,53.04
2022-09-05T05:56:01.919Z,52.48
2022-09-05T05:59:04.413Z,51.37
2022-09-05T06:02:16.338Z,51.12
2022-09-05T06:05:21.423Z,50.19
2022-09-05T06:11:09.473Z,49.66
2022-09-05T06:15:02.366Z,48.94
2022-09-05T06:15:42.363Z,49.10
2022-09-05T06:19:08.316Z,49.05
2022-09-05T06:22:19.362Z,47.64
2022-09-05T06:25:50.480Z,46.51
2022-09-05T06:28:45.881Z,47.22
2022-09-05T06:31:45.869Z,47.20
2022-09-05T06:34:59.916Z,47.65
2022-09-05T06:37:52.616Z,47.87
2022-09-05T06:40:43.527Z,47.40
2022-09-05T06:43:56.620Z,46.26
2022-09-05T06:46:54.936Z,47.00
2022-09-05T06:50:04.437Z,47.02
2022-09-05T06:53:35.195Z,47.04
2022-09-05T06:56:30.832Z,46.74
2022-09-05T06:59:54.227Z,45.98
2022-09-05T07:02:58.965Z,46.21
2022-09-05T07:05:56.592Z,46.48
2022-09-05T07:08:51.790Z,46.21
2022-09-05T07:11:46.254Z,46.53
2022-09-05T07:14:36.139Z,45.79
2022-09-05T07:17:25.538Z,45.97
2022-09-05T07:20:22.032Z,46.82
2022-09-05T07:24:06.859Z,47.49
2022-09-05T07:26:51.401Z,47.00
2022-09-05T07:29:32.563Z,47.03
2022-09-05T07:32:24.244Z,47.15
2022-09-05T07:35:15.044Z,46.69
2022-09-05T07:38:13.928Z,47.45
2022-09-05T07:41:04.538Z,46.57
2022-09-05T07:43:50.931Z,46.29
2022-09-05T07:46:38.901Z,46.34
2022-09-05T07:49:28.342Z,47.22
2022-09-05T07:56:50.219Z,47.06
2022-09-05T07:57:16.082Z,48.24
2022-09-05T07:58:41.553Z,46.97
2022-09-05T08:01:25.790Z,47.35
2022-09-05T08:04:11.035Z,46.69
2022-09-05T08:07:46.878Z,46.91
2022-09-05T08:10:10.305Z,46.35
2022-09-05T08:13:23.773Z,47.06
2022-09-05T08:16:15.239Z,46.81
2022-09-05T08:19:21.729Z,46.32
2022-09-05T08:22:07.803Z,45.64
2022-09-05T08:25:02.374Z,44.85
2022-09-05T08:28:03.337Z,44.07
2022-09-05T08:30:54.071Z,44.52
2022-09-05T08:33:39.501Z,43.70
2022-09-05T08:36:32.166Z,41.45
2022-09-05T08:39:21.390Z,42.77
2022-09-05T08:42:14.600Z,41.57
2022-09-05T08:46:40.019Z,41.17
2022-09-05T08:48:31.691Z,41.61
2022-09-05T08:51:30.997Z,41.21
2022-09-05T08:54:23.782Z,40.92
2022-09-05T08:57:19.260Z,40.26
2022-09-05T09:00:19.179Z,41.02
2022-09-05T09:03:15.183Z,41.40
2022-09-05T09:06:30.225Z,42.77
2022-09-05T09:09:19.603Z,42.35
2022-09-05T09:12:15.385Z,41.71
2022-09-05T09:15:02.755Z,40.79
2022-09-05T09:17:50.737Z,41.26
2022-09-05T09:20:48.083Z,41.26
2022-09-05T09:23:48.616Z,41.65
2022-09-05T09:26:42.062Z,42.62
2022-09-05T09:29:27.876Z,42.33
2022-09-05T09:32:19.359Z,40.71
2022-09-05T09:35:08.563Z,39.99
2022-09-05T09:38:08.981Z,42.29
2022-09-05T09:41:32.702Z,41.75
2022-09-05T09:44:58.127Z,41.87
2022-09-05T09:48:01.945Z,41.59
2022-09-05T09:51:04.613Z,41.22
2022-09-05T09:54:00.715Z,40.89
2022-09-05T09:57:24.577Z,39.67
2022-09-05T10:00:12.047Z,40.33
2022-09-05T10:06:20.099Z,40.77
2022-09-05T10:10:48.842Z,39.87
2022-09-05T10:11:00.624Z,39.27
2022-09-05T10:13:58.378Z,39.02
2022-09-05T10:17:09.557Z,39.84
2022-09-05T10:20:20.807Z,40.14
2022-09-05T10:23:21.589Z,39.85
2022-09-05T10:26:47.343Z,40.09
2022-09-05T10:29:56.513Z,39.61
2022-09-05T10:35:14.792Z,38.01
2022-09-05T10:36:02.994Z,37.49
2022-09-05T10:38:54.263Z,37.70
2022-09-05T10:41:50.033Z,37.73
2022-09-05T10:44:40.689Z,38.98
2022-09-05T10:47:40.490Z,40.47
2022-09-05T10:50:30.418Z,40.37
2022-09-05T10:53:31.111Z,40.18
2022-09-05T10:56:28.620Z,40.03
2022-09-05T11:01:43.189Z,45.08
2022-09-05T11:02:38.572Z,48.12
2022-09-05T11:05:28.026Z,47.39
2022-09-05T11:08:22.838Z,48.04
2022-09-05T11:10:53.331Z,48.67
2022-09-05T11:13:36.566Z,48.69
2022-09-05T11:16:13.647Z,49.51
2022-09-05T11:18:56.142Z,48.83
2022-09-05T11:21:27.519Z,49.46
2022-09-05T11:23:57.429Z,50.07
2022-09-05T11:26:32.090Z,49.96
2022-09-05T11:29:05.584Z,49.13
2022-09-05T11:32:25.381Z,50.70
2022-09-05T11:39:53.197Z,50.31
2022-09-05T11:40:04.116Z,50.18
2022-09-05T11:41:05.324Z,51.96
2022-09-05T11:44:24.878Z,51.97
2022-09-05T11:46:55.128Z,51.60
2022-09-05T11:49:46.022Z,51.34
2022-09-05T11:52:53.753Z,51.25
2022-09-05T11:55:47.736Z,49.96
2022-09-05T11:58:47.195Z,49.99
2022-09-05T12:01:43.503Z,49.31
2022-09-05T12:04:19.755Z,49.24
2022-09-05T12:07:27.015Z,49.82
2022-09-05T12:10:00.684Z,49.49
2022-09-05T12:12:41.416Z,50.21
2022-09-05T12:15:33.945Z,50.48
2022-09-05T12:18:24.241Z,50.51
2022-09-05T12:20:57.641Z,50.62
2022-09-05T12:23:54.049Z,50.39
2022-09-05T12:27:39.580Z,49.96
2022-09-05T12:29:33.692Z,49.75
2022-09-05T12:33:07.528Z,50.16
2022-09-05T12:36:12.499Z,48.87
2022-09-05T12:40:25.476Z,49.12
2022-09-05T12:41:35.078Z,49.72
2022-09-05T12:44:36.858Z,48.88
2022-09-05T12:46:13.575Z,48.78
2022-09-05T12:49:00.351Z,48.09
2022-09-05T12:51:46.177Z,48.80
2022-09-05T12:54:32.701Z,48.08
2022-09-05T13:01:53.151Z,46.36
2022-09-05T13:03:04.488Z,46.40
2022-09-05T13:03:05.549Z,46.54
2022-09-05T13:05:27.934Z,46.38
2022-09-05T13:07:58.335Z,45.32
2022-09-05T13:13:03.929Z,45.25
2022-09-05T13:14:49.526Z,43.93
2022-09-05T13:16:03.438Z,44.21
2022-09-05T13:18:37.456Z,43.50
2022-09-05T13:21:08.494Z,42.94
2022-09-05T13:23:39.594Z,43.04
2022-09-05T13:26:11.502Z,43.77
2022-09-05T13:29:00.174Z,43.37
2022-09-05T13:37:58.028Z,44.75
2022-09-05T13:38:02.790Z,44.10
2022-09-05T13:38:20.680Z,42.36
2022-09-05T13:40:27.941Z,44.95
2022-09-05T13:43:05.064Z,45.89
2022-09-05T13:45:29.667Z,46.46
2022-09-05T13:48:06.343Z,45.59
2022-09-05T13:50:35.137Z,45.21
2022-09-05T13:53:04.967Z,43.85
2022-09-05T13:55:44.182Z,45.35
2022-09-05T13:58:15.612Z,44.64
2022-09-05T14:01:17.629Z,44.61
2022-09-05T14:05:05.350Z,45.28
2022-09-05T14:07:46.007Z,45.58
2022-09-05T14:10:39.340Z,45.80
2022-09-05T14:13:08.476Z,45.71
2022-09-05T14:15:42.565Z,44.91
2022-09-05T14:18:21.341Z,45.83
2022-09-05T14:21:10.489Z,44.78
2022-09-05T14:23:45.066Z,42.44
2022-09-05T14:26:18.485Z,42.35
2022-09-05T14:28:51.222Z,43.60
2022-09-05T14:36:11.016Z,45.10
2022-09-05T14:37:48.385Z,45.49
2022-09-05T14:37:49.875Z,45.40
2022-09-05T14:41:15.187Z,45.04
2022-09-05T14:44:02.143Z,45.17
2022-09-05T14:46:55.939Z,45.49
2022-09-05T14:49:40.677Z,46.28
2022-09-05T14:52:15.724Z,45.99
2022-09-05T15:02:39.817Z,46.32
2022-09-05T15:02:45.054Z,46.32
2022-09-05T15:03:08.824Z,46.60
2022-09-05T15:05:44.918Z,47.34
2022-09-05T15:09:27.272Z,47.45
2022-09-05T15:12:19.782Z,46.03
2022-09-05T15:13:57.198Z,45.44
2022-09-05T15:16:25.737Z,46.42
2022-09-05T15:18:50.897Z,46.43
2022-09-05T15:21:33.691Z,47.11
2022-09-05T15:24:01.429Z,47.30
2022-09-05T15:26:25.811Z,46.70
2022-09-05T15:28:52.400Z,45.71
2022-09-05T15:31:38.316Z,46.01
2022-09-05T15:34:21.947Z,46.16
2022-09-05T15:36:46.124Z,47.48
2022-09-05T15:39:22.285Z,47.54
2022-09-05T15:41:46.544Z,47.26
2022-09-05T15:44:14.943Z,47.24
2022-09-05T15:46:49.299Z,48.17
2022-09-05T15:49:25.700Z,48.56
2022-09-05T15:51:52.849Z,48.82
2022-09-05T15:54:37.666Z,48.56
2022-09-05T15:57:06.740Z,48.91
2022-09-05T15:59:35.844Z,48.42
2022-09-05T16:02:08.520Z,49.15
2022-09-05T16:10:30.912Z,48.49
2022-09-05T16:10:40.244Z,49.04
2022-09-05T16:10:57.770Z,48.87
2022-09-05T16:12:56.060Z,49.27
2022-09-05T16:17:44.754Z,49.67
2022-09-05T16:23:18.322Z,49.70
2022-09-05T16:23:33.822Z,49.77
2022-09-05T16:23:52.975Z,50.30
2022-09-05T16:26:42.959Z,50.07
2022-09-05T16:29:13.699Z,50.82
2022-09-05T16:31:44.291Z,51.16
2022-09-05T16:34:28.729Z,50.78
2022-09-05T16:37:07.783Z,50.52
2022-09-05T16:39:38.182Z,51.16
2022-09-05T16:42:05.762Z,51.59
2022-09-05T16:44:35.767Z,51.62
2022-09-05T16:47:11.259Z,52.24
2022-09-05T16:49:43.146Z,52.67
2022-09-05T16:52:09.360Z,52.64
2022-09-05T16:54:48.068Z,52.78
2022-09-05T16:57:18.481Z,53.32
2022-09-05T16:59:45.512Z,54.15
2022-09-05T17:02:11.202Z,55.28
2022-09-05T17:05:04.520Z,56.51
2022-09-05T17:07:39.914Z,56.96
2022-09-05T17:10:09.743Z,57.33
2022-09-05T17:12:38.594Z,57.51
2022-09-05T17:15:10.227Z,57.92
2022-09-05T17:18:21.676Z,58.33
2022-09-05T17:20:37.839Z,59.40
2022-09-05T17:29:17.526Z,58.79
2022-09-05T17:29:36.535Z,59.09
2022-09-05T17:29:36.537Z,58.77
2022-09-05T17:31:56.180Z,58.67
2022-09-05T17:34:49.706Z,58.51
2022-09-05T17:37:33.968Z,59.05
2022-09-05T17:40:08.754Z,59.98
2022-09-05T17:42:44.207Z,60.03
2022-09-05T17:45:16.325Z,59.91
2022-09-05T17:47:48.392Z,60.39
2022-09-05T17:50:51.273Z,60.99
2022-09-05T17:53:25.748Z,61.92
2022-09-05T17:56:14.400Z,61.17
2022-09-05T17:58:49.718Z,61.13
2022-09-05T18:01:26.611Z,61.47
2022-09-05T18:04:16.085Z,61.77
2022-09-05T18:06:43.977Z,62.18
2022-09-05T18:10:12.091Z,61.85
2022-09-05T18:13:12.723Z,61.99
2022-09-05T18:16:12.559Z,62.40
2022-09-05T18:19:32.230Z,62.71
2022-09-05T18:21:23.023Z,63.00
2022-09-05T18:23:54.370Z,63.06
2022-09-05T18:26:24.962Z,62.96
2022-09-05T18:29:01.685Z,62.47
2022-09-05T18:32:01.677Z,62.88
2022-09-05T18:35:09.074Z,62.67
2022-09-05T18:37:53.710Z,63.04
2022-09-05T18:40:40.903Z,63.09
2022-09-05T18:43:14.276Z,62.58
2022-09-05T18:45:52.523Z,62.31
2022-09-05T18:48:28.280Z,62.33
2022-09-05T18:50:56.116Z,62.14
2022-09-05T18:53:40.152Z,62.66
2022-09-05T18:56:20.520Z,62.82
2022-09-05T18:59:09.405Z,62.57
2022-09-05T19:01:39.301Z,62.39
2022-09-05T19:04:09.738Z,62.68
2022-09-05T19:06:55.297Z,62.81
2022-09-05T19:09:28.750Z,62.63
2022-09-05T19:12:34.533Z,62.06
2022-09-05T19:14:53.671Z,61.98
2022-09-05T19:17:27.383Z,61.87
2022-09-05T19:20:31.802Z,61.54
2022-09-05T19:23:11.090Z,61.26
2022-09-05T19:25:40.379Z,61.27
2022-09-05T19:34:09.903Z,61.28
2022-09-05T19:36:46.724Z,61.29
2022-09-05T19:37:05.137Z,61.41
2022-09-05T19:37:25.584Z,61.24
2022-09-05T19:43:48.409Z,60.76
2022-09-05T19:47:29.719Z,60.70
2022-09-05T19:47:44.914Z,60.91
2022-09-05T19:48:07.502Z,60.61
2022-09-05T19:50:32.695Z,60.61
2022-09-05T19:53:08.069Z,60.81
2022-09-05T19:55:36.835Z,60.84
2022-09-05T19:58:28.089Z,60.31
2022-09-05T20:01:00.925Z,60.73
2022-09-05T20:03:27.740Z,60.66
2022-09-05T20:05:52.310Z,60.86
2022-09-05T20:08:17.045Z,61.02
2022-09-05T20:10:42.097Z,60.61
2022-09-05T20:13:21.439Z,61.12
2022-09-05T20:15:45.676Z,60.42
2022-09-05T20:18:20.893Z,60.02
2022-09-05T20:20:54.357Z,60.29
2022-09-05T20:23:20.021Z,60.64
2022-09-05T20:25:47.507Z,60.54
2022-09-05T20:28:15.810Z,60.88
2022-09-05T20:30:44.773Z,60.71
2022-09-05T20:33:23.016Z,61.05
2022-09-05T20:40:35.805Z,61.33
2022-09-05T20:43:20.078Z,61.20
2022-09-05T20:43:21.746Z,61.27
2022-09-05T20:44:22.949Z,61.11
2022-09-05T20:51:37.903Z,60.95
2022-09-05T20:54:22.586Z,60.95
2022-09-05T20:54:28.650Z,60.83
2022-09-05T20:55:39.389Z,60.75
2022-09-05T20:58:10.439Z,60.37
2022-09-05T21:00:34.470Z,60.78
2022-09-05T21:03:00.851Z,60.40
2022-09-05T21:05:28.599Z,60.58
2022-09-05T21:08:07.437Z,60.65
2022-09-05T21:10:33.855Z,59.93
2022-09-05T21:13:23.445Z,60.61
2022-09-05T21:15:53.262Z,60.22
2022-09-05T21:18:19.796Z,60.24
2022-09-05T21:20:53.358Z,60.54
2022-09-05T21:23:21.987Z,60.52
2022-09-05T21:25:54.835Z,60.49
2022-09-05T21:28:32.702Z,61.07
2022-09-05T21:31:03.940Z,60.67
2022-09-05T21:33:45.413Z,61.16
2022-09-05T21:36:12.042Z,60.79
2022-09-05T21:38:41.298Z,60.75
2022-09-05T21:41:09.439Z,60.49
2022-09-05T21:47:39.156Z,61.18
2022-09-05T21:47:39.906Z,60.52
2022-09-05T21:49:10.295Z,60.83
2022-09-05T21:51:34.572Z,61.32
2022-09-05T21:59:13.295Z,61.23
2022-09-05T21:59:21.636Z,60.97
2022-09-05T21:59:47.023Z,61.34
2022-09-05T22:02:11.686Z,61.27
2022-09-05T22:04:40.906Z,61.43
2022-09-05T22:07:06.443Z,61.46
2022-09-05T22:09:30.946Z,61.59
2022-09-05T22:11:56.566Z,61.60
2022-09-05T22:14:22.041Z,61.33
2022-09-05T22:16:47.536Z,61.15
2022-09-05T22:19:12.842Z,61.26
2022-09-05T22:21:38.856Z,61.49
2022-09-05T22:24:06.295Z,62.13
2022-09-05T22:26:38.049Z,61.81
2022-09-05T22:29:09.752Z,61.88
2022-09-05T22:31:33.894Z,61.53
2022-09-05T22:33:58.222Z,61.97
2022-09-05T22:36:22.737Z,61.91
2022-09-05T22:38:47.748Z,61.82
2022-09-05T22:41:12.818Z,62.45
2022-09-05T22:43:37.048Z,62.21
2022-09-05T22:46:03.673Z,62.58
2022-09-05T22:48:27.867Z,62.46
2022-09-05T22:50:52.438Z,61.97
2022-09-05T22:53:16.541Z,61.87
2022-09-05T22:55:43.749Z,61.93
2022-09-05T22:58:09.983Z,61.61
2022-09-05T23:00:34.720Z,62.18
2022-09-05T23:03:00.897Z,62.26
2022-09-05T23:05:25.035Z,62.57
2022-09-05T23:07:49.069Z,62.81
2022-09-05T23:10:13.055Z,62.77
2022-09-05T23:12:37.773Z,62.46
2022-09-05T23:15:01.813Z,62.62
2022-09-05T23:17:27.751Z,62.54
2022-09-05T23:19:53.221Z,62.61
2022-09-05T23:22:17.248Z,62.40
2022-09-05T23:24:41.158Z,62.47
2022-09-05T23:27:05.375Z,62.94
2022-09-05T23:29:29.328Z,62.63
2022-09-05T23:31:53.319Z,62.68
2022-09-05T23:34:17.508Z,63.29
2022-09-05T23:36:42.893Z,62.94
2022-09-05T23:39:06.894Z,63.18
2022-09-05T23:41:32.424Z,62.86
2022-09-05T23:43:56.657Z,62.87
2022-09-05T23:46:20.934Z,62.95
2022-09-05T23:48:45.314Z,63.40
2022-09-05T23:51:12.014Z,63.35
2022-09-05T23:53:37.849Z,63.00
2022-09-05T23:56:02.090Z,63.01
2022-09-05T23:58:26.347Z,63.03
